HISTORICAL SENSOR DATA

Sensor Data Report

DB LIVE
CURRENT TIME--:--:--
DEVICE NETWORK Gateway Status
13 ESP · realtime ~1s · history 60s
Weather WS-MOD-01
OFFLINE
Actuator ACT-MOD-01
OFFLINE
Mainboard L3 MB-L3-01
ONLINE
Mainboard L5 MB-L5-01
OFFLINE
Remote AC AC-REMOTE-01
OFFLINE
PZEM L3-01 PWR-L3-01
OFFLINE
PZEM L3-02 PWR-L3-02
OFFLINE
PZEM L3-03 PWR-L3-03
OFFLINE
PZEM L3-04 PWR-L3-04
OFFLINE
PZEM L5-01 PWR-L5-01
OFFLINE
PZEM L5-02 PWR-L5-02
OFFLINE
PZEM L5-03 PWR-L5-03
OFFLINE
PZEM L5-04 PWR-L5-04
OFFLINE
REPORT FILTER

Periode & Sensor

DATABASE HISTORY
RESET
QUICK RANGE Hari ini 7 hari 30 hari
PERIODE31 Aug 2026sampai 06 Sep 2026
TOTAL DATA50,821sensor readings
MINIMUM-0.50sesuai filter
AVERAGE96.03sesuai filter
MAXIMUM32,564.20sesuai filter
REPORT RESULT

Data Sensor

31/08/2026 — 06/09/2026 EXPORT CSV
NOTANGGALWAKTUDEVICECHANNELSENSORVALUEUNIT
8201 06/09/2026 14:08:00 MB-L3-01Mainboard Lantai 3 L3-HFT-01 Heat Flow Temperature 1 30.10 °C
8202 06/09/2026 14:08:00 MB-L5-01Mainboard Lantai 5 L5-BGT-01 Black Globe Temperature 1 30.30 °C
8203 06/09/2026 14:08:00 MB-L5-01Mainboard Lantai 5 L5-SHT-02-T SHT20 2 Temperature 32.20 °C
8204 06/09/2026 14:08:00 WS-MOD-01Weather Station Module WS-WIND Kecepatan Angin 9.11 m/s
8205 06/09/2026 14:08:00 MB-L3-01Mainboard Lantai 3 L3-BGT-03 Black Globe Temperature 3 29.30 °C
8206 06/09/2026 14:08:00 MB-L3-01Mainboard Lantai 3 L3-AI-06 Analog Input 6 3.12 V
8207 06/09/2026 14:08:00 MB-L3-01Mainboard Lantai 3 L3-ST-02 Surface Temperature 2 30.10 °C
8208 06/09/2026 14:08:00 MB-L5-01Mainboard Lantai 5 L5-AI-06 Analog Input 6 3.05 V
8209 06/09/2026 14:08:00 MB-L3-01Mainboard Lantai 3 L3-AI-03 Analog Input 3 3.12 V
8210 06/09/2026 14:08:00 MB-L5-01Mainboard Lantai 5 L5-AI-04 Analog Input 4 3.05 V
8211 06/09/2026 14:08:00 MB-L5-01Mainboard Lantai 5 L5-HFT-01 Heat Flow Temperature 1 38.80 °C
8212 06/09/2026 14:08:00 MB-L5-01Mainboard Lantai 5 L5-SHT-02-RH SHT20 2 Humidity 32.40 %RH
8213 06/09/2026 14:08:00 MB-L5-01Mainboard Lantai 5 L5-AI-02 Analog Input 2 3.05 V
8214 06/09/2026 14:08:00 MB-L5-01Mainboard Lantai 5 L5-LUX-06 Illuminance / LUX 6 1,326.00 lux
8215 06/09/2026 14:08:00 MB-L3-01Mainboard Lantai 3 L3-BGT-02 Black Globe Temperature 2 29.30 °C
8216 06/09/2026 14:08:00 MB-L5-01Mainboard Lantai 5 L5-SHT-03-T SHT20 3 Temperature 32.70 °C
8217 06/09/2026 14:08:00 MB-L3-01Mainboard Lantai 3 L3-ST-01 Surface Temperature 1 29.90 °C
8218 06/09/2026 14:08:00 MB-L5-01Mainboard Lantai 5 L5-SHT-03-RH SHT20 3 Humidity 31.80 %RH
8219 06/09/2026 14:08:00 MB-L5-01Mainboard Lantai 5 L5-ST-01 Surface Temperature 1 34.00 °C
8220 06/09/2026 14:07:00 WS-MOD-01Weather Station Module WS-RH Kelembapan Udara 40.80 %RH
8221 06/09/2026 14:07:00 MB-L5-01Mainboard Lantai 5 L5-AI-05 Analog Input 5 3.05 V
8222 06/09/2026 14:07:00 MB-L5-01Mainboard Lantai 5 L5-LUX-02 Illuminance / LUX 2 2,977.40 lux
8223 06/09/2026 14:07:00 MB-L5-01Mainboard Lantai 5 L5-HFT-02 Heat Flow Temperature 2 30.20 °C
8224 06/09/2026 14:07:00 MB-L3-01Mainboard Lantai 3 L3-HFT-02 Heat Flow Temperature 2 28.60 °C
8225 06/09/2026 14:07:00 MB-L5-01Mainboard Lantai 5 L5-AI-03 Analog Input 3 3.05 V
8226 06/09/2026 14:07:00 MB-L5-01Mainboard Lantai 5 L5-RAD-01 Radiation 1 6.00 W/m²
8227 06/09/2026 14:07:00 MB-L5-01Mainboard Lantai 5 L5-LUX-03 Illuminance / LUX 3 1,244.60 lux
8228 06/09/2026 14:07:00 MB-L5-01Mainboard Lantai 5 L5-ST-02 Surface Temperature 2 33.70 °C
8229 06/09/2026 14:07:00 MB-L5-01Mainboard Lantai 5 L5-RAD-02 Radiation 2 4.00 W/m²
8230 06/09/2026 14:07:00 MB-L5-01Mainboard Lantai 5 L5-LUX-04 Illuminance / LUX 4 882.80 lux
8231 06/09/2026 14:07:00 MB-L5-01Mainboard Lantai 5 L5-AI-01 Analog Input 1 3.05 V
8232 06/09/2026 14:07:00 MB-L3-01Mainboard Lantai 3 L3-AI-04 Analog Input 4 3.12 V
8233 06/09/2026 14:07:00 MB-L5-01Mainboard Lantai 5 L5-SHT-01-RH SHT20 1 Humidity 31.00 %RH
8234 06/09/2026 14:07:00 MB-L3-01Mainboard Lantai 3 L3-AI-01 Analog Input 1 3.12 V
8235 06/09/2026 14:07:00 WS-MOD-01Weather Station Module WS-TEMP Suhu Udara 30.00 °C
8236 06/09/2026 14:07:00 MB-L5-01Mainboard Lantai 5 L5-LUX-01 Illuminance / LUX 1 620.00 lux
8237 06/09/2026 14:07:00 MB-L5-01Mainboard Lantai 5 L5-BGT-03 Black Globe Temperature 3 29.60 °C
8238 06/09/2026 14:07:00 MB-L5-01Mainboard Lantai 5 L5-SHT-01-T SHT20 1 Temperature 33.10 °C
8239 06/09/2026 14:07:00 MB-L3-01Mainboard Lantai 3 L3-HFT-01 Heat Flow Temperature 1 29.20 °C
8240 06/09/2026 14:07:00 MB-L5-01Mainboard Lantai 5 L5-BGT-01 Black Globe Temperature 1 30.20 °C
8241 06/09/2026 14:07:00 MB-L5-01Mainboard Lantai 5 L5-SHT-02-T SHT20 2 Temperature 32.30 °C
8242 06/09/2026 14:07:00 WS-MOD-01Weather Station Module WS-WIND Kecepatan Angin 2.14 m/s
8243 06/09/2026 14:07:00 MB-L3-01Mainboard Lantai 3 L3-BGT-03 Black Globe Temperature 3 28.30 °C
8244 06/09/2026 14:07:00 MB-L3-01Mainboard Lantai 3 L3-AI-06 Analog Input 6 3.12 V
8245 06/09/2026 14:07:00 MB-L3-01Mainboard Lantai 3 L3-ST-02 Surface Temperature 2 28.70 °C
8246 06/09/2026 14:07:00 MB-L5-01Mainboard Lantai 5 L5-AI-06 Analog Input 6 3.05 V
8247 06/09/2026 14:07:00 MB-L3-01Mainboard Lantai 3 L3-AI-03 Analog Input 3 3.12 V
8248 06/09/2026 14:07:00 MB-L5-01Mainboard Lantai 5 L5-AI-04 Analog Input 4 3.05 V
8249 06/09/2026 14:07:00 MB-L5-01Mainboard Lantai 5 L5-HFT-01 Heat Flow Temperature 1 38.10 °C
8250 06/09/2026 14:07:00 MB-L5-01Mainboard Lantai 5 L5-SHT-02-RH SHT20 2 Humidity 31.90 %RH
8251 06/09/2026 14:07:00 MB-L5-01Mainboard Lantai 5 L5-AI-02 Analog Input 2 3.05 V
8252 06/09/2026 14:07:00 MB-L5-01Mainboard Lantai 5 L5-LUX-06 Illuminance / LUX 6 1,318.20 lux
8253 06/09/2026 14:07:00 MB-L3-01Mainboard Lantai 3 L3-BGT-02 Black Globe Temperature 2 29.10 °C
8254 06/09/2026 14:07:00 MB-L5-01Mainboard Lantai 5 L5-SHT-03-T SHT20 3 Temperature 32.70 °C
8255 06/09/2026 14:07:00 MB-L3-01Mainboard Lantai 3 L3-ST-01 Surface Temperature 1 28.50 °C
8256 06/09/2026 14:07:00 MB-L5-01Mainboard Lantai 5 L5-SHT-03-RH SHT20 3 Humidity 31.30 %RH
8257 06/09/2026 14:07:00 MB-L5-01Mainboard Lantai 5 L5-ST-01 Surface Temperature 1 32.40 °C
8258 06/09/2026 14:07:00 MB-L5-01Mainboard Lantai 5 L5-BGT-02 Black Globe Temperature 2 29.50 °C
8259 06/09/2026 14:07:00 WS-MOD-01Weather Station Module WS-DIR Arah Angin 293.30 °
8260 06/09/2026 14:07:00 MB-L3-01Mainboard Lantai 3 L3-BGT-01 Black Globe Temperature 1 28.60 °C
8261 06/09/2026 14:07:00 WS-MOD-01Weather Station Module WS-PRES Tekanan Udara 908.00 hPa
8262 06/09/2026 14:07:00 MB-L3-01Mainboard Lantai 3 L3-AI-05 Analog Input 5 3.12 V
8263 06/09/2026 14:07:00 MB-L3-01Mainboard Lantai 3 L3-AI-02 Analog Input 2 3.12 V
8264 06/09/2026 14:07:00 MB-L5-01Mainboard Lantai 5 L5-LUX-05 Illuminance / LUX 5 29,753.50 lux
8265 06/09/2026 14:06:00 MB-L5-01Mainboard Lantai 5 L5-SHT-01-RH SHT20 1 Humidity 30.20 %RH
8266 06/09/2026 14:06:00 MB-L3-01Mainboard Lantai 3 L3-AI-01 Analog Input 1 3.12 V
8267 06/09/2026 14:06:00 WS-MOD-01Weather Station Module WS-TEMP Suhu Udara 29.30 °C
8268 06/09/2026 14:06:00 MB-L5-01Mainboard Lantai 5 L5-LUX-01 Illuminance / LUX 1 647.50 lux
8269 06/09/2026 14:06:00 MB-L5-01Mainboard Lantai 5 L5-BGT-03 Black Globe Temperature 3 30.30 °C
8270 06/09/2026 14:06:00 MB-L5-01Mainboard Lantai 5 L5-SHT-01-T SHT20 1 Temperature 33.20 °C
8271 06/09/2026 14:06:00 MB-L3-01Mainboard Lantai 3 L3-HFT-01 Heat Flow Temperature 1 30.50 °C
8272 06/09/2026 14:06:00 MB-L5-01Mainboard Lantai 5 L5-BGT-01 Black Globe Temperature 1 30.40 °C
8273 06/09/2026 14:06:00 MB-L5-01Mainboard Lantai 5 L5-SHT-02-T SHT20 2 Temperature 32.40 °C
8274 06/09/2026 14:06:00 WS-MOD-01Weather Station Module WS-WIND Kecepatan Angin 3.37 m/s
8275 06/09/2026 14:06:00 MB-L3-01Mainboard Lantai 3 L3-BGT-03 Black Globe Temperature 3 29.80 °C
8276 06/09/2026 14:06:00 MB-L3-01Mainboard Lantai 3 L3-AI-06 Analog Input 6 3.12 V
8277 06/09/2026 14:06:00 MB-L3-01Mainboard Lantai 3 L3-ST-02 Surface Temperature 2 30.70 °C
8278 06/09/2026 14:06:00 MB-L5-01Mainboard Lantai 5 L5-AI-06 Analog Input 6 3.05 V
8279 06/09/2026 14:06:00 MB-L3-01Mainboard Lantai 3 L3-AI-03 Analog Input 3 3.12 V
8280 06/09/2026 14:06:00 MB-L5-01Mainboard Lantai 5 L5-AI-04 Analog Input 4 3.05 V
8281 06/09/2026 14:06:00 MB-L5-01Mainboard Lantai 5 L5-HFT-01 Heat Flow Temperature 1 37.20 °C
8282 06/09/2026 14:06:00 MB-L5-01Mainboard Lantai 5 L5-SHT-02-RH SHT20 2 Humidity 31.70 %RH
8283 06/09/2026 14:06:00 MB-L5-01Mainboard Lantai 5 L5-AI-02 Analog Input 2 3.05 V
8284 06/09/2026 14:06:00 MB-L5-01Mainboard Lantai 5 L5-LUX-06 Illuminance / LUX 6 1,315.80 lux
8285 06/09/2026 14:06:00 MB-L3-01Mainboard Lantai 3 L3-BGT-02 Black Globe Temperature 2 29.70 °C
8286 06/09/2026 14:06:00 MB-L5-01Mainboard Lantai 5 L5-SHT-03-T SHT20 3 Temperature 32.80 °C
8287 06/09/2026 14:06:00 MB-L3-01Mainboard Lantai 3 L3-ST-01 Surface Temperature 1 30.50 °C
8288 06/09/2026 14:06:00 MB-L5-01Mainboard Lantai 5 L5-SHT-03-RH SHT20 3 Humidity 31.10 %RH
8289 06/09/2026 14:06:00 MB-L5-01Mainboard Lantai 5 L5-ST-01 Surface Temperature 1 33.30 °C
8290 06/09/2026 14:06:00 MB-L5-01Mainboard Lantai 5 L5-BGT-02 Black Globe Temperature 2 29.70 °C
8291 06/09/2026 14:06:00 WS-MOD-01Weather Station Module WS-DIR Arah Angin 318.70 °
8292 06/09/2026 14:06:00 MB-L3-01Mainboard Lantai 3 L3-BGT-01 Black Globe Temperature 1 30.10 °C
8293 06/09/2026 14:06:00 WS-MOD-01Weather Station Module WS-PRES Tekanan Udara 908.00 hPa
8294 06/09/2026 14:06:00 MB-L3-01Mainboard Lantai 3 L3-AI-05 Analog Input 5 3.12 V
8295 06/09/2026 14:06:00 MB-L3-01Mainboard Lantai 3 L3-AI-02 Analog Input 2 3.12 V
8296 06/09/2026 14:06:00 MB-L5-01Mainboard Lantai 5 L5-LUX-05 Illuminance / LUX 5 30,282.90 lux
8297 06/09/2026 14:06:00 WS-MOD-01Weather Station Module WS-RH Kelembapan Udara 42.00 %RH
8298 06/09/2026 14:06:00 MB-L5-01Mainboard Lantai 5 L5-AI-05 Analog Input 5 3.05 V
8299 06/09/2026 14:06:00 MB-L5-01Mainboard Lantai 5 L5-LUX-02 Illuminance / LUX 2 2,990.90 lux
8300 06/09/2026 14:06:00 MB-L5-01Mainboard Lantai 5 L5-HFT-02 Heat Flow Temperature 2 31.00 °C
Menampilkan maksimal 100 data per halaman